Time;durP1;ratioP1;P1;durP2;ratioP2;P2;SDS_P1;SDS_P2;PMS_P1;PMS_P2;Temp;Humidity;BMP_temperature;BMP_pressure;BME280_temperature;BME280_humidity;BME280_pressure;Samples;Min_cycle;Max_cycle;Signal;HPM_P1;HPM_P2
2022/10/29 00:01:03;;;;;;;30.60;17.20;;;;;;;;;;5013922;28;20018;-76
2022/10/29 00:03:29;;;;;;;26.33;15.95;;;;;;;;;;5003530;28;20018;-76
2022/10/29 00:05:58;;;;;;;22.77;15.93;;;;;;;;;;5013366;28;20080;-76
2022/10/29 00:08:24;;;;;;;31.70;18.00;;;;;;;;;;5009123;28;20088;-76
2022/10/29 00:10:50;;;;;;;31.63;18.33;;;;;;;;;;5005482;28;20508;-75
2022/10/29 00:13:16;;;;;;;28.00;19.17;;;;;;;;;;4999262;28;20034;-77
2022/10/29 00:15:42;;;;;;;27.85;19.00;;;;;;;;;;5013470;28;20091;-76
2022/10/29 00:18:08;;;;;;;27.13;18.70;;;;;;;;;;5007805;28;20034;-76
2022/10/29 00:20:34;;;;;;;29.98;17.70;;;;;;;;;;5007444;28;20029;-77
2022/10/29 00:23:00;;;;;;;27.90;17.20;;;;;;;;;;4995661;28;20041;-79
2022/10/29 00:25:26;;;;;;;27.08;17.20;;;;;;;;;;5005606;28;20160;-77
2022/10/29 00:27:52;;;;;;;24.85;16.83;;;;;;;;;;5012096;28;20499;-76
2022/10/29 00:30:18;;;;;;;24.38;16.27;;;;;;;;;;5019744;28;20037;-76
2022/10/29 00:32:44;;;;;;;27.23;16.88;;;;;;;;;;5004469;28;20034;-76
2022/10/29 00:35:10;;;;;;;26.65;16.15;;;;;;;;;;5005718;28;20089;-76
2022/10/29 00:37:36;;;;;;;25.70;17.30;;;;;;;;;;5012450;28;20388;-76
2022/10/29 00:40:02;;;;;;;29.33;18.83;;;;;;;;;;5010967;28;20109;-77
2022/10/29 00:42:28;;;;;;;41.28;21.25;;;;;;;;;;5007765;28;20030;-76
2022/10/29 00:44:54;;;;;;;29.73;19.55;;;;;;;;;;5007934;28;20097;-77
2022/10/29 00:47:20;;;;;;;27.05;18.30;;;;;;;;;;5007740;28;20102;-77
2022/10/29 00:49:49;;;;;;;33.10;17.70;;;;;;;;;;4995018;28;20053;-76
2022/10/29 00:52:16;;;;;;;33.28;19.17;;;;;;;;;;4996918;28;20057;-77
2022/10/29 00:54:43;;;;;;;28.65;18.75;;;;;;;;;;5004775;28;20032;-78
2022/10/29 00:57:15;;;;;;;28.90;19.33;;;;;;;;;;5007285;28;20033;-77
2022/10/29 00:59:42;;;;;;;25.10;18.67;;;;;;;;;;5012504;28;20125;-77
2022/10/29 01:02:08;;;;;;;30.92;19.60;;;;;;;;;;4994867;28;20047;-77
2022/10/29 01:04:34;;;;;;;30.17;19.80;;;;;;;;;;4991690;28;20393;-76
2022/10/29 01:07:01;;;;;;;31.15;20.10;;;;;;;;;;5010798;28;20026;-76
2022/10/29 01:09:27;;;;;;;31.95;19.63;;;;;;;;;;5010587;28;20034;-77
2022/10/29 01:11:56;;;;;;;31.52;20.00;;;;;;;;;;5012134;28;20384;-76
2022/10/29 01:14:42;;;;;;;30.85;18.92;;;;;;;;;;5003199;28;20148;-77
2022/10/29 01:17:14;;;;;;;27.42;17.63;;;;;;;;;;5007160;28;20026;-77
2022/10/29 01:19:59;;;;;;;32.35;20.05;;;;;;;;;;5011935;28;20030;-76
2022/10/29 01:22:31;;;;;;;32.08;20.23;;;;;;;;;;5000806;28;20504;-76
2022/10/29 01:24:57;;;;;;;31.10;18.83;;;;;;;;;;5004681;28;20022;-76
2022/10/29 01:27:29;;;;;;;29.70;18.02;;;;;;;;;;5011008;28;20095;-75
2022/10/29 01:29:55;;;;;;;28.27;17.83;;;;;;;;;;5005099;28;20026;-76
2022/10/29 01:32:27;;;;;;;24.73;17.65;;;;;;;;;;5000039;28;20052;-77
2022/10/29 01:34:59;;;;;;;24.13;17.10;;;;;;;;;;5004069;28;20566;-75
2022/10/29 01:37:25;;;;;;;28.48;17.92;;;;;;;;;;5010858;28;20036;-73
2022/10/29 01:39:51;;;;;;;26.75;17.30;;;;;;;;;;4993918;28;20388;-76
2022/10/29 01:42:20;;;;;;;30.38;18.02;;;;;;;;;;5008245;28;20509;-74
2022/10/29 01:44:49;;;;;;;27.58;17.90;;;;;;;;;;5005728;28;20018;-77
2022/10/29 01:47:17;;;;;;;29.63;18.48;;;;;;;;;;5006542;28;20025;-74
2022/10/29 01:49:45;;;;;;;27.48;16.98;;;;;;;;;;5011642;28;20506;-76
2022/10/29 01:52:13;;;;;;;27.85;17.40;;;;;;;;;;4999335;28;20034;-77
2022/10/29 01:54:40;;;;;;;25.42;16.58;;;;;;;;;;4990813;28;20567;-75
2022/10/29 01:57:25;;;;;;;30.30;17.30;;;;;;;;;;5010440;28;20030;-73
2022/10/29 01:59:52;;;;;;;26.65;14.93;;;;;;;;;;5022542;28;20038;-75
2022/10/29 02:02:26;;;;;;;23.80;17.38;;;;;;;;;;4995174;28;20355;-74
2022/10/29 02:04:52;;;;;;;34.42;18.48;;;;;;;;;;5004864;28;20022;-76
2022/10/29 02:07:42;;;;;;;25.52;17.35;;;;;;;;;;5010788;28;20487;-76
2022/10/29 02:10:14;;;;;;;27.55;16.95;;;;;;;;;;5009501;28;20088;-78
2022/10/29 02:12:48;;;;;;;26.20;17.40;;;;;;;;;;5004634;28;20045;-75
2022/10/29 02:15:26;;;;;;;27.33;16.35;;;;;;;;;;5008996;28;20046;-77
2022/10/29 02:17:53;;;;;;;26.95;16.20;;;;;;;;;;5005861;28;20033;-78
2022/10/29 02:20:19;;;;;;;31.00;17.48;;;;;;;;;;4990139;28;20029;-77
2022/10/29 02:22:45;;;;;;;25.20;17.27;;;;;;;;;;5002679;28;20022;-77
2022/10/29 02:25:11;;;;;;;23.25;16.05;;;;;;;;;;4993088;28;20014;-77
2022/10/29 02:27:37;;;;;;;30.92;18.75;;;;;;;;;;4992783;28;20025;-77
2022/10/29 02:30:03;;;;;;;27.05;18.52;;;;;;;;;;5019561;28;20020;-77
2022/10/29 02:32:31;;;;;;;29.55;17.85;;;;;;;;;;4995431;28;20026;-79
2022/10/29 02:34:57;;;;;;;28.23;18.40;;;;;;;;;;5000130;28;20098;-76
2022/10/29 02:37:23;;;;;;;32.10;19.15;;;;;;;;;;4992468;28;20045;-75
2022/10/29 02:39:49;;;;;;;34.70;20.52;;;;;;;;;;5010874;28;20125;-77
2022/10/29 02:42:15;;;;;;;30.63;20.13;;;;;;;;;;4998762;28;20480;-77
2022/10/29 02:44:41;;;;;;;27.77;19.52;;;;;;;;;;5004528;28;20085;-78
2022/10/29 02:47:07;;;;;;;29.52;20.13;;;;;;;;;;5011769;28;20018;-75
2022/10/29 02:49:33;;;;;;;23.90;17.75;;;;;;;;;;4997465;28;20048;-78
2022/10/29 02:51:59;;;;;;;30.77;18.85;;;;;;;;;;4996244;28;20029;-76
2022/10/29 02:54:25;;;;;;;25.60;18.33;;;;;;;;;;5006622;28;20029;-76
2022/10/29 02:56:51;;;;;;;28.23;19.17;;;;;;;;;;5010261;28;20033;-77
2022/10/29 02:59:17;;;;;;;28.52;19.65;;;;;;;;;;5021452;28;20566;-76
2022/10/29 03:01:42;;;;;;;28.80;18.73;;;;;;;;;;5018551;28;20104;-77
2022/10/29 03:04:10;;;;;;;39.50;20.35;;;;;;;;;;5004760;28;20042;-77
2022/10/29 03:06:36;;;;;;;27.67;19.00;;;;;;;;;;4995463;28;20030;-76
2022/10/29 03:09:02;;;;;;;30.48;20.00;;;;;;;;;;5014292;28;20408;-77
2022/10/29 03:11:28;;;;;;;33.05;20.38;;;;;;;;;;4997211;28;20399;-77
2022/10/29 03:13:54;;;;;;;35.88;22.20;;;;;;;;;;5004993;28;20018;-77
2022/10/29 03:16:20;;;;;;;29.67;19.73;;;;;;;;;;5010614;28;20097;-77
2022/10/29 03:18:46;;;;;;;29.38;20.17;;;;;;;;;;5013169;28;20392;-78
2022/10/29 03:21:15;;;;;;;28.27;19.60;;;;;;;;;;5014797;28;20018;-78
2022/10/29 03:23:44;;;;;;;27.58;19.90;;;;;;;;;;5005060;28;20021;-78
2022/10/29 03:26:12;;;;;;;31.38;20.70;;;;;;;;;;5011919;28;20411;-79
2022/10/29 03:28:38;;;;;;;26.75;19.40;;;;;;;;;;5013172;28;20091;-76
2022/10/29 03:31:04;;;;;;;33.25;21.42;;;;;;;;;;5013248;28;20026;-77
2022/10/29 03:33:30;;;;;;;36.10;22.45;;;;;;;;;;4996731;28;20502;-78
2022/10/29 03:35:57;;;;;;;30.75;20.35;;;;;;;;;;5007345;28;20109;-78
2022/10/29 03:38:23;;;;;;;38.03;22.23;;;;;;;;;;5011245;28;20030;-77
2022/10/29 03:40:49;;;;;;;36.38;22.17;;;;;;;;;;5014287;28;20029;-76
2022/10/29 03:43:15;;;;;;;34.92;22.92;;;;;;;;;;4994465;28;20026;-76
2022/10/29 03:45:41;;;;;;;37.97;24.27;;;;;;;;;;5014117;28;20026;-75
2022/10/29 03:48:07;;;;;;;37.70;23.88;;;;;;;;;;5011260;28;20057;-75
2022/10/29 03:50:33;;;;;;;40.70;23.98;;;;;;;;;;5014051;28;20033;-78
2022/10/29 03:53:05;;;;;;;38.20;25.13;;;;;;;;;;4993306;28;20034;-76
2022/10/29 03:55:31;;;;;;;36.40;23.80;;;;;;;;;;5006505;28;20113;-75
2022/10/29 03:57:57;;;;;;;36.25;25.10;;;;;;;;;;5009948;28;20038;-76
2022/10/29 04:00:23;;;;;;;39.03;25.40;;;;;;;;;;5021149;28;20054;-78
2022/10/29 04:02:49;;;;;;;41.33;26.15;;;;;;;;;;5005620;28;20101;-76
2022/10/29 04:05:15;;;;;;;44.78;27.60;;;;;;;;;;5006441;28;20286;-75
2022/10/29 04:07:41;;;;;;;42.70;26.30;;;;;;;;;;4995326;28;20492;-76
2022/10/29 04:10:07;;;;;;;39.22;26.33;;;;;;;;;;5011329;28;20025;-76
2022/10/29 04:12:33;;;;;;;39.10;26.67;;;;;;;;;;5003412;28;20033;-77
2022/10/29 04:14:59;;;;;;;45.13;27.88;;;;;;;;;;4994513;28;20035;-77
2022/10/29 04:17:25;;;;;;;39.17;26.98;;;;;;;;;;4995060;28;20022;-75
2022/10/29 04:19:51;;;;;;;47.67;26.80;;;;;;;;;;5011462;28;20388;-74
2022/10/29 04:22:17;;;;;;;43.45;28.65;;;;;;;;;;5009982;28;20477;-75
2022/10/29 04:24:43;;;;;;;43.63;27.38;;;;;;;;;;5006961;28;20037;-74
2022/10/29 04:27:09;;;;;;;45.35;26.55;;;;;;;;;;4994456;28;20558;-76
2022/10/29 04:29:34;;;;;;;47.40;28.80;;;;;;;;;;5024002;28;20384;-76
2022/10/29 04:32:00;;;;;;;48.67;28.75;;;;;;;;;;5001588;28;20032;-75
2022/10/29 04:34:27;;;;;;;40.10;27.27;;;;;;;;;;5008559;28;20030;-75
2022/10/29 04:36:53;;;;;;;44.08;28.58;;;;;;;;;;5010899;28;20030;-76
2022/10/29 04:39:19;;;;;;;49.60;29.20;;;;;;;;;;4994744;28;20510;-76
2022/10/29 04:41:47;;;;;;;45.45;26.92;;;;;;;;;;4995364;28;20076;-76
2022/10/29 04:44:13;;;;;;;42.92;27.90;;;;;;;;;;5003475;28;20052;-75
2022/10/29 04:46:39;;;;;;;42.50;27.50;;;;;;;;;;4993989;28;20057;-76
2022/10/29 04:49:05;;;;;;;43.92;26.85;;;;;;;;;;5012331;28;20017;-76
2022/10/29 04:51:31;;;;;;;43.38;26.92;;;;;;;;;;5000223;28;20031;-75
2022/10/29 04:53:57;;;;;;;39.33;27.63;;;;;;;;;;5012116;28;20488;-78
2022/10/29 04:56:23;;;;;;;43.75;26.55;;;;;;;;;;5006550;28;20046;-77
2022/10/29 04:58:52;;;;;;;40.95;27.35;;;;;;;;;;4998419;28;20431;-78
2022/10/29 05:01:18;;;;;;;44.63;28.75;;;;;;;;;;5018427;28;20084;-76
2022/10/29 05:03:44;;;;;;;46.55;28.15;;;;;;;;;;5012440;28;20100;-75
2022/10/29 05:06:10;;;;;;;43.97;27.77;;;;;;;;;;4995207;28;20117;-76
2022/10/29 05:08:36;;;;;;;44.08;28.40;;;;;;;;;;5011612;28;20025;-76
2022/10/29 05:11:03;;;;;;;47.70;27.23;;;;;;;;;;5003102;28;20026;-76
2022/10/29 05:13:30;;;;;;;42.30;27.17;;;;;;;;;;5011099;28;20105;-79
2022/10/29 05:15:56;;;;;;;44.20;26.77;;;;;;;;;;5005935;28;20029;-77
2022/10/29 05:18:22;;;;;;;45.00;27.98;;;;;;;;;;5010282;28;20026;-75
2022/10/29 05:20:48;;;;;;;46.95;28.65;;;;;;;;;;5012965;28;20499;-75
2022/10/29 05:23:14;;;;;;;45.78;29.40;;;;;;;;;;4993215;28;20113;-75
2022/10/29 05:25:40;;;;;;;43.40;28.30;;;;;;;;;;5013383;28;20056;-75
2022/10/29 05:28:09;;;;;;;48.40;29.52;;;;;;;;;;5013257;28;20018;-78
2022/10/29 05:30:35;;;;;;;45.88;27.90;;;;;;;;;;5014488;28;20053;-77
2022/10/29 05:33:01;;;;;;;41.80;27.25;;;;;;;;;;5006907;28;20022;-76
2022/10/29 05:35:27;;;;;;;40.92;26.10;;;;;;;;;;5017275;28;20025;-77
2022/10/29 05:37:54;;;;;;;43.25;27.35;;;;;;;;;;4997126;28;20396;-75
2022/10/29 05:40:20;;;;;;;39.78;25.80;;;;;;;;;;5010633;28;20017;-75
2022/10/29 05:42:46;;;;;;;34.22;23.55;;;;;;;;;;5004525;28;20022;-76
2022/10/29 05:45:13;;;;;;;33.60;23.13;;;;;;;;;;4994316;28;20014;-76
2022/10/29 05:47:39;;;;;;;37.40;23.90;;;;;;;;;;4990290;28;20022;-76
2022/10/29 05:50:05;;;;;;;36.55;24.15;;;;;;;;;;5008872;28;20102;-77
2022/10/29 05:52:31;;;;;;;40.38;23.80;;;;;;;;;;5011599;28;20037;-76
2022/10/29 05:54:57;;;;;;;40.35;25.02;;;;;;;;;;5010241;28;20025;-76
2022/10/29 05:57:23;;;;;;;35.72;22.77;;;;;;;;;;5009619;28;20045;-77
2022/10/29 05:59:49;;;;;;;38.25;24.85;;;;;;;;;;5010813;28;20076;-76
2022/10/29 06:02:15;;;;;;;36.25;23.48;;;;;;;;;;4993843;28;20018;-76
2022/10/29 06:04:40;;;;;;;34.92;23.77;;;;;;;;;;5011706;28;20025;-76
2022/10/29 06:07:06;;;;;;;39.53;25.92;;;;;;;;;;5006079;28;20059;-74
2022/10/29 06:09:33;;;;;;;35.95;23.67;;;;;;;;;;5008206;28;20432;-78
2022/10/29 06:11:59;;;;;;;31.60;22.55;;;;;;;;;;5007226;28;20030;-77
2022/10/29 06:14:25;;;;;;;39.88;25.75;;;;;;;;;;5003654;28;20033;-77
2022/10/29 06:16:51;;;;;;;36.83;24.08;;;;;;;;;;5007002;28;20026;-77
2022/10/29 06:19:17;;;;;;;42.10;26.90;;;;;;;;;;4992782;28;20033;-77
2022/10/29 06:21:43;;;;;;;40.17;26.02;;;;;;;;;;4998409;28;20381;-76
2022/10/29 06:24:09;;;;;;;41.88;25.45;;;;;;;;;;5001311;28;20020;-79
2022/10/29 06:26:36;;;;;;;37.38;24.90;;;;;;;;;;4991729;28;20026;-77
2022/10/29 06:29:02;;;;;;;33.65;24.05;;;;;;;;;;5016608;28;20052;-78
2022/10/29 06:31:28;;;;;;;35.80;24.63;;;;;;;;;;5003805;28;20251;-75
2022/10/29 06:33:54;;;;;;;37.55;23.50;;;;;;;;;;5010629;28;20447;-76
2022/10/29 06:36:20;;;;;;;34.75;25.27;;;;;;;;;;5004270;28;20475;-76
2022/10/29 06:38:46;;;;;;;33.90;22.73;;;;;;;;;;5008248;28;20463;-76
2022/10/29 06:41:13;;;;;;;35.95;23.48;;;;;;;;;;5010951;28;20058;-76
2022/10/29 06:43:38;;;;;;;32.45;21.55;;;;;;;;;;5001423;28;20391;-76
2022/10/29 06:46:05;;;;;;;34.22;22.10;;;;;;;;;;5009079;28;20026;-74
2022/10/29 06:48:31;;;;;;;34.05;21.75;;;;;;;;;;5007790;28;20018;-74
2022/10/29 06:51:00;;;;;;;36.13;21.65;;;;;;;;;;5011960;28;20059;-75
2022/10/29 06:53:26;;;;;;;33.53;21.77;;;;;;;;;;4993127;28;20029;-78
2022/10/29 06:55:52;;;;;;;29.58;20.85;;;;;;;;;;5001497;28;20569;-77
2022/10/29 06:58:19;;;;;;;29.70;20.08;;;;;;;;;;4990717;28;20030;-78
2022/10/29 07:00:45;;;;;;;33.55;20.65;;;;;;;;;;5012476;28;20503;-77
2022/10/29 07:03:12;;;;;;;32.05;19.85;;;;;;;;;;4993065;28;20046;-76
2022/10/29 07:05:38;;;;;;;27.50;19.40;;;;;;;;;;5011769;28;20041;-77
2022/10/29 07:08:05;;;;;;;28.20;18.90;;;;;;;;;;5005542;28;20112;-77
2022/10/29 07:10:31;;;;;;;29.65;19.60;;;;;;;;;;5011304;28;20088;-77
2022/10/29 07:12:58;;;;;;;31.40;19.95;;;;;;;;;;5010983;28;20061;-75
2022/10/29 07:15:24;;;;;;;32.38;18.85;;;;;;;;;;5003593;28;20041;-77
2022/10/29 07:18:19;;;;;;;27.65;18.48;;;;;;;;;;4992982;28;20040;-77
2022/10/29 07:20:45;;;;;;;25.98;18.13;;;;;;;;;;4992133;28;20049;-77
2022/10/29 07:23:11;;;;;;;34.35;18.77;;;;;;;;;;5005381;28;20415;-73
2022/10/29 07:25:41;;;;;;;31.13;18.27;;;;;;;;;;5003882;28;20498;-75
2022/10/29 07:28:15;;;;;;;25.33;17.13;;;;;;;;;;5007909;28;20072;-74
2022/10/29 07:30:41;;;;;;;27.25;16.40;;;;;;;;;;5001800;28;20034;-78
2022/10/29 07:33:07;;;;;;;26.52;16.67;;;;;;;;;;4992748;28;20026;-78
2022/10/29 07:35:34;;;;;;;27.90;16.80;;;;;;;;;;5006858;28;20080;-74
2022/10/29 07:40:36;;;;;;;25.35;16.77;;;;;;;;;;5015333;26;20049;-75
2022/10/29 07:43:12;;;;;;;28.50;16.42;;;;;;;;;;5055387;28;20020;-77
2022/10/29 07:45:48;;;;;;;25.83;16.90;;;;;;;;;;5060265;28;20021;-75
2022/10/29 07:48:21;;;;;;;25.27;16.52;;;;;;;;;;5069000;28;20111;-77
2022/10/29 07:51:25;;;;;;;27.40;17.67;;;;;;;;;;5061612;28;20044;-77
2022/10/29 07:53:57;;;;;;;25.95;16.75;;;;;;;;;;5041285;22;20047;-81
2022/10/29 07:56:37;;;;;;;23.95;16.00;;;;;;;;;;5062989;28;20028;-82
2022/10/29 07:59:40;;;;;;;;;;;;;;;;;;;;;
2022/10/29 08:02:10;;;;;;;38.40;18.20;;;;;;;;;;5077979;28;20096;-82
2022/10/29 08:04:36;;;;;;;25.42;16.73;;;;;;;;;;5075045;28;20017;-82
2022/10/29 08:07:02;;;;;;;29.05;16.92;;;;;;;;;;5075792;28;20044;-82
2022/10/29 08:09:28;;;;;;;23.25;15.65;;;;;;;;;;5077635;28;20091;-83
2022/10/29 08:12:13;;;;;;;20.88;14.82;;;;;;;;;;5078543;28;20489;-83
2022/10/29 08:15:06;;;;;;;22.90;15.60;;;;;;;;;;5075457;28;20029;-83
2022/10/29 08:17:54;;;;;;;30.40;16.33;;;;;;;;;;5041013;28;20036;-82
2022/10/29 08:20:27;;;;;;;28.40;17.02;;;;;;;;;;5060206;28;20059;-83
2022/10/29 08:22:53;;;;;;;24.58;15.27;;;;;;;;;;5079804;28;20549;-84
2022/10/29 08:25:31;;;;;;;23.70;16.20;;;;;;;;;;5068490;28;20033;-84
2022/10/29 08:28:26;;;;;;;26.05;16.73;;;;;;;;;;5067697;28;20041;-82
2022/10/29 08:44:45;;;;;;;25.92;17.85;;;;;;;;;;4298285;22;20049;-80
2022/10/29 08:47:37;;;;;;;;;;;;;;;;;;;;;
2022/10/29 08:50:23;;;;;;;27.63;17.00;;;;;;;;;;5052164;28;20095;-77
2022/10/29 08:53:25;;;;;;;23.13;17.45;;;;;;;;;;5051043;28;20112;-75
2022/10/29 08:55:53;;;;;;;27.58;18.02;;;;;;;;;;5034434;28;20040;-76
2022/10/29 09:00:57;;;;;;;30.60;20.83;;;;;;;;;;5029755;28;20056;-75
2022/10/29 09:03:25;;;;;;;26.17;17.30;;;;;;;;;;5031418;28;20407;-76
2022/10/29 09:05:57;;;;;;;26.50;17.65;;;;;;;;;;5031669;28;20538;-76
2022/10/29 09:08:29;;;;;;;33.42;17.42;;;;;;;;;;5029572;28;20111;-77
2022/10/29 09:11:03;;;;;;;30.48;16.88;;;;;;;;;;5031097;28;20060;-75
2022/10/29 09:13:40;;;;;;;25.02;17.27;;;;;;;;;;5013724;28;20026;-75
2022/10/29 09:16:13;;;;;;;27.15;17.00;;;;;;;;;;5032780;28;20029;-75
2022/10/29 09:18:42;;;;;;;27.98;17.17;;;;;;;;;;5030742;28;20032;-75
2022/10/29 09:21:21;;;;;;;25.40;16.73;;;;;;;;;;5030567;28;20017;-75
2022/10/29 09:23:50;;;;;;;21.48;15.68;;;;;;;;;;5031565;28;20092;-75
2022/10/29 09:26:20;;;;;;;28.83;17.00;;;;;;;;;;5014774;28;20025;-75
2022/10/29 09:29:02;;;;;;;21.83;15.60;;;;;;;;;;5031321;28;20052;-76
2022/10/29 09:31:31;;;;;;;24.08;16.42;;;;;;;;;;5032054;28;20468;-76
2022/10/29 09:33:59;;;;;;;22.88;16.23;;;;;;;;;;5014792;28;20032;-75
2022/10/29 09:36:25;;;;;;;24.48;17.17;;;;;;;;;;5031872;28;20029;-79
2022/10/29 09:38:54;;;;;;;27.85;17.50;;;;;;;;;;5030908;28;20033;-76
2022/10/29 09:41:22;;;;;;;27.63;16.55;;;;;;;;;;5032028;28;20398;-77
2022/10/29 09:43:52;;;;;;;23.52;16.02;;;;;;;;;;5013382;28;20093;-77
2022/10/29 09:46:36;;;;;;;32.28;17.00;;;;;;;;;;5031808;28;20534;-76
2022/10/29 09:49:19;;;;;;;27.95;16.95;;;;;;;;;;5019327;28;20037;-77
2022/10/29 09:52:03;;;;;;;28.25;16.77;;;;;;;;;;5031648;28;20040;-76
2022/10/29 09:54:30;;;;;;;24.98;15.43;;;;;;;;;;5031670;28;20021;-76
2022/10/29 09:56:57;;;;;;;24.20;15.88;;;;;;;;;;5030677;28;20076;-76
2022/10/29 09:59:39;;;;;;;38.80;16.40;;;;;;;;;;5031097;28;20503;-77
2022/10/29 10:02:24;;;;;;;23.75;16.27;;;;;;;;;;5013882;28;20021;-76
2022/10/29 10:04:51;;;;;;;19.65;14.70;;;;;;;;;;5031864;28;20032;-76
2022/10/29 10:07:21;;;;;;;24.13;15.60;;;;;;;;;;5031133;28;20108;-76
2022/10/29 10:09:54;;;;;;;24.15;14.30;;;;;;;;;;5031734;28;20037;-78
2022/10/29 10:12:22;;;;;;;17.77;13.73;;;;;;;;;;5031645;28;20097;-77
2022/10/29 10:14:48;;;;;;;18.48;13.82;;;;;;;;;;5031480;28;20032;-75
2022/10/29 10:17:14;;;;;;;25.40;14.93;;;;;;;;;;5031530;28;20035;-76
2022/10/29 10:19:44;;;;;;;26.10;15.30;;;;;;;;;;5030844;28;20026;-73
2022/10/29 10:22:17;;;;;;;24.65;16.63;;;;;;;;;;5029905;28;20021;-75
2022/10/29 10:24:44;;;;;;;21.35;15.75;;;;;;;;;;5031132;28;20025;-77
2022/10/29 10:27:19;;;;;;;25.10;16.10;;;;;;;;;;5030352;28;20545;-77
2022/10/29 10:30:21;;;;;;;21.42;15.25;;;;;;;;;;5030642;28;20407;-75
2022/10/29 10:32:47;;;;;;;20.42;14.35;;;;;;;;;;5009498;28;20376;-76
2022/10/29 10:35:26;;;;;;;25.27;15.50;;;;;;;;;;5029859;28;20022;-76
2022/10/29 10:37:52;;;;;;;24.13;15.25;;;;;;;;;;5030487;28;20029;-76
2022/10/29 10:40:23;;;;;;;20.15;14.20;;;;;;;;;;5030675;28;20021;-76
2022/10/29 10:42:51;;;;;;;24.05;16.35;;;;;;;;;;5030694;28;20357;-76
2022/10/29 10:45:22;;;;;;;24.85;16.65;;;;;;;;;;5018443;28;20033;-76
2022/10/29 10:47:50;;;;;;;22.38;14.32;;;;;;;;;;5030149;28;20029;-76
2022/10/29 10:50:21;;;;;;;21.85;13.80;;;;;;;;;;5011972;28;20013;-75
2022/10/29 10:52:48;;;;;;;26.52;14.98;;;;;;;;;;5012536;28;20018;-75
2022/10/29 10:55:22;;;;;;;24.35;15.10;;;;;;;;;;5026607;28;20071;-74
2022/10/29 10:57:52;;;;;;;22.77;14.68;;;;;;;;;;5028772;28;20049;-76
2022/10/29 11:00:20;;;;;;;25.67;14.70;;;;;;;;;;5029597;28;20029;-76
2022/10/29 11:02:46;;;;;;;18.77;14.18;;;;;;;;;;5009495;28;20519;-76
2022/10/29 11:05:17;;;;;;;19.80;14.43;;;;;;;;;;5017222;28;20024;-76
2022/10/29 11:07:50;;;;;;;26.55;15.82;;;;;;;;;;5009619;28;20033;-74
2022/10/29 11:10:17;;;;;;;20.27;14.52;;;;;;;;;;5034026;28;20100;-73
2022/10/29 11:12:46;;;;;;;24.08;15.27;;;;;;;;;;5020240;28;20030;-75
2022/10/29 11:15:12;;;;;;;20.33;14.02;;;;;;;;;;5032804;28;20104;-76
2022/10/29 11:17:44;;;;;;;25.10;15.05;;;;;;;;;;5033048;28;20472;-75
2022/10/29 11:20:29;;;;;;;21.40;14.00;;;;;;;;;;5033604;28;20040;-76
2022/10/29 11:23:00;;;;;;;22.60;14.65;;;;;;;;;;5032115;28;20018;-76
2022/10/29 11:25:48;;;;;;;19.00;13.27;;;;;;;;;;5023631;28;20403;-76
2022/10/29 11:28:29;;;;;;;24.40;14.85;;;;;;;;;;5024859;28;20026;-73
2022/10/29 11:31:02;;;;;;;21.33;14.20;;;;;;;;;;5019277;28;20040;-74
2022/10/29 11:33:41;;;;;;;23.63;15.00;;;;;;;;;;5034239;28;20100;-76
2022/10/29 11:36:21;;;;;;;22.55;14.25;;;;;;;;;;5024163;28;20156;-76
2022/10/29 11:38:50;;;;;;;21.10;14.55;;;;;;;;;;5027949;28;20033;-76
2022/10/29 11:41:22;;;;;;;21.63;14.50;;;;;;;;;;5032238;28;20025;-75
2022/10/29 11:43:49;;;;;;;22.65;15.10;;;;;;;;;;5013807;28;20479;-74
2022/10/29 11:46:28;;;;;;;34.13;16.45;;;;;;;;;;5026493;28;20013;-74
2022/10/29 11:48:57;;;;;;;19.65;14.75;;;;;;;;;;5019936;28;20045;-75
2022/10/29 11:51:50;;;;;;;19.20;13.23;;;;;;;;;;5023884;28;20040;-75
2022/10/29 11:54:36;;;;;;;20.58;14.38;;;;;;;;;;5024697;28;20018;-74
2022/10/29 11:57:13;;;;;;;21.30;14.50;;;;;;;;;;5034918;28;20487;-73
2022/10/29 11:59:42;;;;;;;24.15;14.80;;;;;;;;;;5016205;28;20403;-74
2022/10/29 12:02:27;;;;;;;23.30;14.40;;;;;;;;;;5032369;28;20407;-74
2022/10/29 12:04:53;;;;;;;21.80;14.82;;;;;;;;;;5033621;28;20040;-75
2022/10/29 12:07:19;;;;;;;20.35;14.32;;;;;;;;;;5033162;28;20021;-74
2022/10/29 12:09:57;;;;;;;25.35;15.23;;;;;;;;;;5033227;28;20021;-75
2022/10/29 12:12:32;;;;;;;21.08;14.68;;;;;;;;;;5033843;28;20040;-75
2022/10/29 12:15:00;;;;;;;25.92;15.15;;;;;;;;;;5033783;28;20022;-74
2022/10/29 12:17:33;;;;;;;22.10;15.52;;;;;;;;;;5015246;28;20450;-75
2022/10/29 12:20:02;;;;;;;21.40;14.88;;;;;;;;;;5033195;28;20449;-74
2022/10/29 12:22:31;;;;;;;22.77;14.90;;;;;;;;;;5016134;28;20017;-74
2022/10/29 12:24:57;;;;;;;21.75;15.40;;;;;;;;;;5034030;28;20029;-75
2022/10/29 12:27:29;;;;;;;22.52;15.05;;;;;;;;;;5015922;28;20033;-74
2022/10/29 12:29:55;;;;;;;26.65;16.10;;;;;;;;;;5037650;28;20055;-75
2022/10/29 12:32:33;;;;;;;22.88;15.90;;;;;;;;;;5043246;28;20057;-75
2022/10/29 12:35:18;;;;;;;23.50;15.65;;;;;;;;;;5041426;28;20037;-74
2022/10/29 12:38:02;;;;;;;22.95;15.40;;;;;;;;;;5039271;28;20021;-76
2022/10/29 12:40:30;;;;;;;23.73;16.13;;;;;;;;;;5040129;28;20032;-75
2022/10/29 12:43:00;;;;;;;25.70;15.68;;;;;;;;;;5016074;28;20021;-75
2022/10/29 12:45:46;;;;;;;30.08;15.80;;;;;;;;;;5032843;28;20025;-75
2022/10/29 12:48:15;;;;;;;25.77;16.00;;;;;;;;;;5032327;28;20104;-75
2022/10/29 12:50:45;;;;;;;26.83;17.70;;;;;;;;;;5024480;28;20778;-75
2022/10/29 12:53:24;;;;;;;24.50;17.65;;;;;;;;;;5019617;28;20120;-76
2022/10/29 12:55:51;;;;;;;29.58;17.08;;;;;;;;;;5033819;28;20037;-76
2022/10/29 12:58:37;;;;;;;25.27;17.27;;;;;;;;;;5014792;28;20026;-76
2022/10/29 13:01:03;;;;;;;26.42;16.20;;;;;;;;;;4988475;28;20460;-75
2022/10/29 13:03:58;;;;;;;28.52;16.65;;;;;;;;;;5012602;28;20056;-74
2022/10/29 13:06:45;;;;;;;29.50;17.77;;;;;;;;;;5012907;28;20073;-78
2022/10/29 13:09:32;;;;;;;24.17;17.30;;;;;;;;;;5013017;28;20072;-80
2022/10/29 13:12:09;;;;;;;23.58;15.48;;;;;;;;;;5022090;28;20029;-81
2022/10/29 13:14:39;;;;;;;23.45;16.25;;;;;;;;;;5002307;28;20043;-81
2022/10/29 13:17:40;;;;;;;30.40;19.90;;;;;;;;;;5014784;28;20028;-82
2022/10/29 13:20:24;;;;;;;31.15;20.02;;;;;;;;;;4906233;29;20036;-79
2022/10/29 13:22:50;;;;;;;33.47;19.77;;;;;;;;;;4937824;28;20393;-79
2022/10/29 13:25:40;;;;;;;93.60;54.83;;;;;;;;;;5013846;28;20030;-78
2022/10/29 13:28:11;;;;;;;27.85;19.30;;;;;;;;;;5007828;28;20022;-79
2022/10/29 13:30:41;;;;;;;34.65;20.55;;;;;;;;;;4996538;28;20040;-78
2022/10/29 13:33:22;;;;;;;29.80;21.65;;;;;;;;;;4999355;28;20028;-79
2022/10/29 13:35:51;;;;;;;32.28;21.45;;;;;;;;;;5016221;28;20057;-77
2022/10/29 13:38:17;;;;;;;24.67;18.75;;;;;;;;;;4991866;28;20030;-77
2022/10/29 13:41:07;;;;;;;31.52;20.40;;;;;;;;;;4994900;28;20392;-77
2022/10/29 13:43:33;;;;;;;34.15;19.67;;;;;;;;;;4993383;28;20113;-77
2022/10/29 13:46:02;;;;;;;31.25;20.70;;;;;;;;;;5016091;28;20087;-77
2022/10/29 13:51:06;;;;;;;29.05;20.83;;;;;;;;;;1297054;26;20053;-80
2022/10/29 13:53:42;;;;;;;31.40;22.15;;;;;;;;;;5033372;28;20024;-77
2022/10/29 13:56:10;;;;;;;38.42;21.70;;;;;;;;;;5054712;28;20390;-79
2022/10/29 13:58:40;;;;;;;28.88;21.35;;;;;;;;;;5053311;28;20028;-77
2022/10/29 14:01:14;;;;;;;32.97;22.25;;;;;;;;;;5051757;28;20108;-77
2022/10/29 14:03:58;;;;;;;33.92;20.80;;;;;;;;;;5068240;28;20499;-81
2022/10/29 14:06:35;;;;;;;37.10;21.83;;;;;;;;;;5046751;28;20021;-80
2022/10/29 14:11:57;;;;;;;34.20;21.73;;;;;;;;;;5043669;23;20132;-77
2022/10/29 14:14:59;;;;;;;34.63;21.42;;;;;;;;;;5037026;28;20068;-78
2022/10/29 14:26:20;;;;;;;31.15;19.85;;;;;;;;;;5042675;28;20430;-78
2022/10/29 14:33:59;;;;;;;32.45;20.67;;;;;;;;;;4715741;22;20248;-75
2022/10/29 14:36:30;;;;;;;32.75;20.13;;;;;;;;;;5048890;28;20031;-75
2022/10/29 14:49:22;;;;;;;30.70;21.02;;;;;;;;;;1367107;26;20047;-79
2022/10/29 14:51:51;;;;;;;42.83;23.27;;;;;;;;;;5029544;28;20475;-75
2022/10/29 14:54:21;;;;;;;40.17;22.45;;;;;;;;;;5048923;28;20024;-74
2022/10/29 14:56:49;;;;;;;33.00;20.98;;;;;;;;;;5037744;28;20023;-74
2022/10/29 14:59:18;;;;;;;51.65;27.15;;;;;;;;;;5021801;28;20167;-74
2022/10/29 15:05:00;;;;;;;33.47;20.60;;;;;;;;;;5112043;22;20103;-80
2022/10/29 15:13:48;;;;;;;34.80;20.13;;;;;;;;;;4962497;28;20050;-81
2022/10/29 15:19:55;;;;;;;32.53;20.90;;;;;;;;;;5022016;28;20074;-81
2022/10/29 15:22:31;;;;;;;33.80;21.35;;;;;;;;;;5031928;28;20048;-81
2022/10/29 15:25:06;;;;;;;34.65;21.55;;;;;;;;;;5013009;28;20033;-81
2022/10/29 15:27:53;;;;;;;29.90;20.85;;;;;;;;;;5010708;28;20028;-81
2022/10/29 15:30:20;;;;;;;34.35;21.33;;;;;;;;;;5013429;28;20104;-80
2022/10/29 15:32:49;;;;;;;37.42;23.23;;;;;;;;;;5027436;28;20026;-80
2022/10/29 15:35:23;;;;;;;34.85;22.58;;;;;;;;;;5033755;28;20041;-81
2022/10/29 15:37:50;;;;;;;30.05;22.40;;;;;;;;;;5009894;28;20029;-80
2022/10/29 15:48:55;;;;;;;34.63;23.27;;;;;;;;;;5048848;28;20034;-80